sensor_id;sensor_type;location;lat;lon;timestamp;pressure;altitude;pressure_sealevel;temperature;humidity
84578;BME280;74803;44.756;19.218;2024-02-15T00:00:03;101391.44;;;3.45;68.61
84578;BME280;74803;44.756;19.218;2024-02-15T00:02:32;101394.63;;;3.34;68.96
84578;BME280;74803;44.756;19.218;2024-02-15T00:04:57;101401.84;;;3.28;69.08
84578;BME280;74803;44.756;19.218;2024-02-15T00:07:23;101394.91;;;3.30;68.85
84578;BME280;74803;44.756;19.218;2024-02-15T00:09:48;101398.72;;;3.23;68.58
84578;BME280;74803;44.756;19.218;2024-02-15T00:12:14;101390.38;;;3.19;69.15
84578;BME280;74803;44.756;19.218;2024-02-15T00:14:39;101384.06;;;3.25;69.18
84578;BME280;74803;44.756;19.218;2024-02-15T00:17:05;101388.81;;;3.31;68.94
84578;BME280;74803;44.756;19.218;2024-02-15T00:19:30;101379.84;;;3.24;69.30
84578;BME280;74803;44.756;19.218;2024-02-15T00:21:56;101385.91;;;3.37;68.16
84578;BME280;74803;44.756;19.218;2024-02-15T00:24:22;101391.50;;;3.29;68.23
84578;BME280;74803;44.756;19.218;2024-02-15T00:26:47;101393.84;;;3.18;68.35
84578;BME280;74803;44.756;19.218;2024-02-15T00:29:13;101391.63;;;3.12;69.65
84578;BME280;74803;44.756;19.218;2024-02-15T00:31:38;101392.16;;;3.03;68.90
84578;BME280;74803;44.756;19.218;2024-02-15T00:34:05;101393.94;;;3.17;68.79
84578;BME280;74803;44.756;19.218;2024-02-15T00:36:31;101385.78;;;3.10;69.07
84578;BME280;74803;44.756;19.218;2024-02-15T00:38:58;101389.81;;;3.14;68.76
84578;BME280;74803;44.756;19.218;2024-02-15T00:41:24;101374.78;;;3.36;68.07
84578;BME280;74803;44.756;19.218;2024-02-15T00:43:50;101378.75;;;3.42;68.31
84578;BME280;74803;44.756;19.218;2024-02-15T00:46:16;101374.53;;;3.41;68.52
84578;BME280;74803;44.756;19.218;2024-02-15T00:48:41;101380.75;;;3.37;68.34
84578;BME280;74803;44.756;19.218;2024-02-15T00:51:07;101376.38;;;3.39;67.91
84578;BME280;74803;44.756;19.218;2024-02-15T00:53:32;101376.72;;;3.33;68.22
84578;BME280;74803;44.756;19.218;2024-02-15T00:55:58;101365.53;;;3.20;68.53
84578;BME280;74803;44.756;19.218;2024-02-15T00:58:23;101363.88;;;3.19;68.60
84578;BME280;74803;44.756;19.218;2024-02-15T01:00:50;101377.97;;;3.12;68.60
84578;BME280;74803;44.756;19.218;2024-02-15T01:03:16;101369.66;;;3.22;68.82
84578;BME280;74803;44.756;19.218;2024-02-15T01:05:41;101370.41;;;3.24;68.29
84578;BME280;74803;44.756;19.218;2024-02-15T01:08:07;101364.59;;;3.21;69.03
84578;BME280;74803;44.756;19.218;2024-02-15T01:10:34;101367.63;;;3.13;69.33
84578;BME280;74803;44.756;19.218;2024-02-15T01:13:00;101362.84;;;3.21;68.77
84578;BME280;74803;44.756;19.218;2024-02-15T01:15:25;101364.84;;;3.16;69.16
84578;BME280;74803;44.756;19.218;2024-02-15T01:17:51;101361.94;;;3.22;68.32
84578;BME280;74803;44.756;19.218;2024-02-15T01:20:16;101361.09;;;3.22;68.93
84578;BME280;74803;44.756;19.218;2024-02-15T01:22:42;101360.75;;;3.14;69.09
84578;BME280;74803;44.756;19.218;2024-02-15T01:25:09;101359.91;;;3.13;68.95
84578;BME280;74803;44.756;19.218;2024-02-15T01:27:35;101364.13;;;3.14;69.39
84578;BME280;74803;44.756;19.218;2024-02-15T01:30:01;101351.66;;;3.08;69.38
84578;BME280;74803;44.756;19.218;2024-02-15T01:32:26;101352.53;;;2.93;70.15
84578;BME280;74803;44.756;19.218;2024-02-15T01:34:52;101349.34;;;3.03;70.02
84578;BME280;74803;44.756;19.218;2024-02-15T01:37:22;101349.72;;;3.12;69.26
84578;BME280;74803;44.756;19.218;2024-02-15T01:39:48;101347.88;;;2.99;70.00
84578;BME280;74803;44.756;19.218;2024-02-15T01:42:14;101353.47;;;3.06;70.00
84578;BME280;74803;44.756;19.218;2024-02-15T01:44:42;101349.63;;;3.13;69.22
84578;BME280;74803;44.756;19.218;2024-02-15T01:47:09;101356.25;;;3.31;68.19
84578;BME280;74803;44.756;19.218;2024-02-15T01:49:35;101345.69;;;3.22;69.19
84578;BME280;74803;44.756;19.218;2024-02-15T01:52:01;101354.59;;;3.16;68.93
84578;BME280;74803;44.756;19.218;2024-02-15T01:54:29;101356.50;;;3.13;68.84
84578;BME280;74803;44.756;19.218;2024-02-15T01:56:54;101364.13;;;3.00;69.28
84578;BME280;74803;44.756;19.218;2024-02-15T01:59:21;101360.56;;;2.87;69.82
84578;BME280;74803;44.756;19.218;2024-02-15T02:01:48;101356.13;;;2.90;69.68
84578;BME280;74803;44.756;19.218;2024-02-15T02:04:14;101361.41;;;2.87;69.87
84578;BME280;74803;44.756;19.218;2024-02-15T02:06:39;101361.50;;;2.86;70.19
84578;BME280;74803;44.756;19.218;2024-02-15T02:09:06;101355.09;;;2.93;69.98
84578;BME280;74803;44.756;19.218;2024-02-15T02:11:31;101363.38;;;2.98;69.82
84578;BME280;74803;44.756;19.218;2024-02-15T02:13:57;101359.31;;;2.94;69.91
84578;BME280;74803;44.756;19.218;2024-02-15T02:16:26;101360.53;;;3.02;69.78
84578;BME280;74803;44.756;19.218;2024-02-15T02:18:52;101363.81;;;2.90;69.70
84578;BME280;74803;44.756;19.218;2024-02-15T02:21:17;101358.94;;;2.86;70.23
84578;BME280;74803;44.756;19.218;2024-02-15T02:23:43;101359.38;;;2.78;69.93
84578;BME280;74803;44.756;19.218;2024-02-15T02:26:12;101366.16;;;2.79;69.98
84578;BME280;74803;44.756;19.218;2024-02-15T02:28:37;101358.38;;;2.81;70.84
84578;BME280;74803;44.756;19.218;2024-02-15T02:31:03;101367.22;;;2.91;70.58
84578;BME280;74803;44.756;19.218;2024-02-15T02:33:28;101367.78;;;2.96;70.06
84578;BME280;74803;44.756;19.218;2024-02-15T02:35:54;101364.75;;;3.03;69.60
84578;BME280;74803;44.756;19.218;2024-02-15T02:38:19;101363.28;;;2.99;69.80
84578;BME280;74803;44.756;19.218;2024-02-15T02:40:45;101372.00;;;2.81;70.34
84578;BME280;74803;44.756;19.218;2024-02-15T02:43:10;101364.16;;;2.84;70.12
84578;BME280;74803;44.756;19.218;2024-02-15T02:45:36;101366.81;;;2.83;70.12
84578;BME280;74803;44.756;19.218;2024-02-15T02:48:02;101366.34;;;2.76;70.36
84578;BME280;74803;44.756;19.218;2024-02-15T02:50:27;101365.91;;;2.84;70.26
84578;BME280;74803;44.756;19.218;2024-02-15T02:52:53;101363.00;;;2.90;70.24
84578;BME280;74803;44.756;19.218;2024-02-15T02:55:19;101363.16;;;2.87;70.29
84578;BME280;74803;44.756;19.218;2024-02-15T02:57:46;101366.53;;;2.87;69.97
84578;BME280;74803;44.756;19.218;2024-02-15T03:00:12;101365.34;;;2.79;70.02
84578;BME280;74803;44.756;19.218;2024-02-15T03:02:40;101365.44;;;2.91;69.90
84578;BME280;74803;44.756;19.218;2024-02-15T03:05:06;101375.78;;;3.06;69.73
84578;BME280;74803;44.756;19.218;2024-02-15T03:07:33;101375.78;;;3.06;69.73
84578;BME280;74803;44.756;19.218;2024-02-15T03:09:59;101374.75;;;3.08;69.94
84578;BME280;74803;44.756;19.218;2024-02-15T03:12:25;101365.69;;;3.17;69.92
84578;BME280;74803;44.756;19.218;2024-02-15T03:14:51;101380.44;;;3.13;69.09
84578;BME280;74803;44.756;19.218;2024-02-15T03:17:17;101375.97;;;3.17;69.90
84578;BME280;74803;44.756;19.218;2024-02-15T03:19:42;101372.22;;;3.22;69.42
84578;BME280;74803;44.756;19.218;2024-02-15T03:22:08;101366.25;;;3.22;68.73
84578;BME280;74803;44.756;19.218;2024-02-15T03:24:33;101383.22;;;3.10;69.61
84578;BME280;74803;44.756;19.218;2024-02-15T03:26:59;101377.34;;;3.22;69.28
84578;BME280;74803;44.756;19.218;2024-02-15T03:29:25;101388.06;;;3.15;68.96
84578;BME280;74803;44.756;19.218;2024-02-15T03:31:50;101379.47;;;3.30;68.98
84578;BME280;74803;44.756;19.218;2024-02-15T03:34:18;101387.28;;;3.42;68.82
84578;BME280;74803;44.756;19.218;2024-02-15T03:36:46;101389.22;;;3.53;68.29
84578;BME280;74803;44.756;19.218;2024-02-15T03:39:13;101392.97;;;3.47;68.27
84578;BME280;74803;44.756;19.218;2024-02-15T03:41:38;101378.38;;;3.34;68.34
84578;BME280;74803;44.756;19.218;2024-02-15T03:44:04;101382.88;;;3.44;68.58
84578;BME280;74803;44.756;19.218;2024-02-15T03:46:29;101383.44;;;3.35;68.12
84578;BME280;74803;44.756;19.218;2024-02-15T03:48:55;101384.44;;;3.33;68.80
84578;BME280;74803;44.756;19.218;2024-02-15T03:51:24;101385.13;;;3.21;68.89
84578;BME280;74803;44.756;19.218;2024-02-15T03:53:50;101389.75;;;3.16;68.84
84578;BME280;74803;44.756;19.218;2024-02-15T03:56:17;101389.75;;;3.16;68.84
84578;BME280;74803;44.756;19.218;2024-02-15T03:58:42;101383.31;;;3.23;68.54
84578;BME280;74803;44.756;19.218;2024-02-15T04:01:08;101385.66;;;3.12;69.00
84578;BME280;74803;44.756;19.218;2024-02-15T04:03:35;101389.34;;;3.08;69.31
84578;BME280;74803;44.756;19.218;2024-02-15T04:06:01;101392.47;;;3.13;69.36
84578;BME280;74803;44.756;19.218;2024-02-15T04:08:26;101381.72;;;3.06;69.39
84578;BME280;74803;44.756;19.218;2024-02-15T04:10:52;101382.94;;;3.15;69.92
84578;BME280;74803;44.756;19.218;2024-02-15T04:13:18;101389.59;;;3.03;69.39
84578;BME280;74803;44.756;19.218;2024-02-15T04:15:44;101388.63;;;3.06;69.76
84578;BME280;74803;44.756;19.218;2024-02-15T04:18:12;101392.66;;;3.10;69.42
84578;BME280;74803;44.756;19.218;2024-02-15T04:20:41;101394.03;;;3.15;69.00
84578;BME280;74803;44.756;19.218;2024-02-15T04:23:11;101393.56;;;3.09;70.25
84578;BME280;74803;44.756;19.218;2024-02-15T04:25:37;101396.31;;;3.06;69.23
84578;BME280;74803;44.756;19.218;2024-02-15T04:28:02;101397.25;;;2.89;70.11
84578;BME280;74803;44.756;19.218;2024-02-15T04:30:29;101394.69;;;2.89;70.99
84578;BME280;74803;44.756;19.218;2024-02-15T04:32:55;101396.69;;;2.84;70.56
84578;BME280;74803;44.756;19.218;2024-02-15T04:35:20;101390.78;;;2.97;70.50
84578;BME280;74803;44.756;19.218;2024-02-15T04:37:47;101392.97;;;2.89;70.33
84578;BME280;74803;44.756;19.218;2024-02-15T04:40:12;101388.47;;;2.93;70.93
84578;BME280;74803;44.756;19.218;2024-02-15T04:42:39;101382.22;;;2.83;70.36
84578;BME280;74803;44.756;19.218;2024-02-15T04:45:10;101372.28;;;2.77;71.01
84578;BME280;74803;44.756;19.218;2024-02-15T04:47:38;101373.78;;;2.81;71.48
84578;BME280;74803;44.756;19.218;2024-02-15T04:50:06;101370.00;;;2.86;70.77
84578;BME280;74803;44.756;19.218;2024-02-15T04:52:31;101370.94;;;2.85;71.19
84578;BME280;74803;44.756;19.218;2024-02-15T04:54:57;101375.03;;;2.74;71.63
84578;BME280;74803;44.756;19.218;2024-02-15T04:57:25;101374.13;;;2.75;71.78
84578;BME280;74803;44.756;19.218;2024-02-15T04:59:53;101383.38;;;2.77;71.19
84578;BME280;74803;44.756;19.218;2024-02-15T05:02:19;101386.09;;;2.90;70.69
84578;BME280;74803;44.756;19.218;2024-02-15T05:04:45;101387.38;;;2.97;71.02
84578;BME280;74803;44.756;19.218;2024-02-15T05:07:10;101389.81;;;2.84;70.76
84578;BME280;74803;44.756;19.218;2024-02-15T05:09:36;101384.16;;;2.93;71.42
84578;BME280;74803;44.756;19.218;2024-02-15T05:12:01;101384.72;;;2.98;70.46
84578;BME280;74803;44.756;19.218;2024-02-15T05:14:30;101387.22;;;3.00;70.44
84578;BME280;74803;44.756;19.218;2024-02-15T05:16:56;101391.41;;;3.01;70.34
84578;BME280;74803;44.756;19.218;2024-02-15T05:19:21;101384.25;;;2.92;71.28
84578;BME280;74803;44.756;19.218;2024-02-15T05:21:47;101384.66;;;3.00;71.06
84578;BME280;74803;44.756;19.218;2024-02-15T05:24:16;101381.16;;;3.01;70.56
84578;BME280;74803;44.756;19.218;2024-02-15T05:26:41;101381.34;;;2.98;71.01
84578;BME280;74803;44.756;19.218;2024-02-15T05:29:08;101372.13;;;3.24;70.17
84578;BME280;74803;44.756;19.218;2024-02-15T05:31:34;101379.47;;;3.30;69.87
84578;BME280;74803;44.756;19.218;2024-02-15T05:34:00;101385.63;;;3.41;70.15
84578;BME280;74803;44.756;19.218;2024-02-15T05:36:25;101382.22;;;3.41;69.69
84578;BME280;74803;44.756;19.218;2024-02-15T05:38:52;101389.41;;;3.50;68.72
84578;BME280;74803;44.756;19.218;2024-02-15T05:41:18;101390.41;;;3.33;69.42
84578;BME280;74803;44.756;19.218;2024-02-15T05:43:47;101389.66;;;3.45;69.68
84578;BME280;74803;44.756;19.218;2024-02-15T05:46:18;101386.00;;;3.35;69.52
84578;BME280;74803;44.756;19.218;2024-02-15T05:48:43;101394.44;;;3.37;69.46
84578;BME280;74803;44.756;19.218;2024-02-15T05:51:09;101393.59;;;3.37;70.11
84578;BME280;74803;44.756;19.218;2024-02-15T05:53:35;101401.94;;;3.26;70.63
84578;BME280;74803;44.756;19.218;2024-02-15T05:56:07;101403.44;;;3.30;69.65
84578;BME280;74803;44.756;19.218;2024-02-15T05:58:34;101398.84;;;3.35;69.49
84578;BME280;74803;44.756;19.218;2024-02-15T06:01:01;101398.19;;;3.46;69.80
84578;BME280;74803;44.756;19.218;2024-02-15T06:03:27;101401.31;;;3.51;69.85
84578;BME280;74803;44.756;19.218;2024-02-15T06:05:53;101401.25;;;3.67;68.55
84578;BME280;74803;44.756;19.218;2024-02-15T06:08:24;101404.28;;;3.73;68.40
84578;BME280;74803;44.756;19.218;2024-02-15T06:10:49;101407.19;;;3.81;68.68
84578;BME280;74803;44.756;19.218;2024-02-15T06:13:15;101405.66;;;3.93;68.14
84578;BME280;74803;44.756;19.218;2024-02-15T06:15:41;101400.13;;;3.85;68.61
84578;BME280;74803;44.756;19.218;2024-02-15T06:18:06;101408.75;;;3.98;67.82
84578;BME280;74803;44.756;19.218;2024-02-15T06:20:35;101409.94;;;4.07;68.32
84578;BME280;74803;44.756;19.218;2024-02-15T06:23:01;101414.63;;;4.14;67.20
84578;BME280;74803;44.756;19.218;2024-02-15T06:25:31;101425.00;;;4.13;67.24
84578;BME280;74803;44.756;19.218;2024-02-15T06:27:56;101423.41;;;4.24;67.55
84578;BME280;74803;44.756;19.218;2024-02-15T06:30:28;101425.06;;;4.25;67.85
84578;BME280;74803;44.756;19.218;2024-02-15T06:33:12;101422.00;;;4.47;67.24
84578;BME280;74803;44.756;19.218;2024-02-15T06:35:57;101432.03;;;4.64;66.86
84578;BME280;74803;44.756;19.218;2024-02-15T06:38:41;101433.94;;;4.75;65.99
84578;BME280;74803;44.756;19.218;2024-02-15T06:41:43;101427.94;;;4.74;66.27
84578;BME280;74803;44.756;19.218;2024-02-15T06:44:08;101435.81;;;4.86;65.78
84578;BME280;74803;44.756;19.218;2024-02-15T06:46:34;101431.88;;;4.80;65.43
84578;BME280;74803;44.756;19.218;2024-02-15T06:49:00;101438.31;;;5.00;66.00
84578;BME280;74803;44.756;19.218;2024-02-15T06:51:25;101435.88;;;5.11;65.49
84578;BME280;74803;44.756;19.218;2024-02-15T06:53:51;101442.31;;;5.18;65.00
84578;BME280;74803;44.756;19.218;2024-02-15T06:56:21;101440.16;;;5.37;65.04
84578;BME280;74803;44.756;19.218;2024-02-15T06:58:46;101448.41;;;5.42;64.84
84578;BME280;74803;44.756;19.218;2024-02-15T07:01:13;101452.00;;;5.40;64.92
84578;BME280;74803;44.756;19.218;2024-02-15T07:03:41;101444.31;;;5.52;63.96
84578;BME280;74803;44.756;19.218;2024-02-15T07:06:08;101437.88;;;5.58;64.30
84578;BME280;74803;44.756;19.218;2024-02-15T07:08:34;101436.84;;;5.73;64.13
84578;BME280;74803;44.756;19.218;2024-02-15T07:11:00;101433.56;;;5.71;64.19
84578;BME280;74803;44.756;19.218;2024-02-15T07:13:27;101438.00;;;5.94;62.87
84578;BME280;74803;44.756;19.218;2024-02-15T07:15:53;101438.75;;;5.96;63.14
84578;BME280;74803;44.756;19.218;2024-02-15T07:18:18;101436.09;;;6.22;62.58
84578;BME280;74803;44.756;19.218;2024-02-15T07:20:47;101438.56;;;6.23;62.63
84578;BME280;74803;44.756;19.218;2024-02-15T07:23:13;101432.50;;;6.48;61.91
84578;BME280;74803;44.756;19.218;2024-02-15T07:25:38;101431.16;;;6.55;61.73
84578;BME280;74803;44.756;19.218;2024-02-15T07:28:04;101430.81;;;6.60;61.66
84578;BME280;74803;44.756;19.218;2024-02-15T07:30:30;101427.41;;;6.35;62.43
84578;BME280;74803;44.756;19.218;2024-02-15T07:32:56;101430.22;;;6.80;60.66
84578;BME280;74803;44.756;19.218;2024-02-15T07:35:22;101429.75;;;6.86;60.63
84578;BME280;74803;44.756;19.218;2024-02-15T07:37:53;101439.03;;;7.12;60.02
84578;BME280;74803;44.756;19.218;2024-02-15T07:40:21;101442.91;;;7.18;59.73
84578;BME280;74803;44.756;19.218;2024-02-15T07:42:47;101436.53;;;7.11;60.25
84578;BME280;74803;44.756;19.218;2024-02-15T07:45:13;101439.53;;;7.28;60.12
84578;BME280;74803;44.756;19.218;2024-02-15T07:47:38;101429.34;;;7.60;59.39
84578;BME280;74803;44.756;19.218;2024-02-15T07:50:04;101427.50;;;7.62;58.85
84578;BME280;74803;44.756;19.218;2024-02-15T07:52:31;101431.97;;;7.71;59.31
84578;BME280;74803;44.756;19.218;2024-02-15T07:54:59;101431.03;;;7.72;58.62
84578;BME280;74803;44.756;19.218;2024-02-15T07:57:27;101426.81;;;7.82;59.05
84578;BME280;74803;44.756;19.218;2024-02-15T08:00:03;101424.78;;;8.08;58.27
84578;BME280;74803;44.756;19.218;2024-02-15T08:02:38;101422.06;;;8.10;58.32
84578;BME280;74803;44.756;19.218;2024-02-15T08:05:06;101425.94;;;8.04;58.23
84578;BME280;74803;44.756;19.218;2024-02-15T08:07:44;101424.84;;;8.29;58.36
84578;BME280;74803;44.756;19.218;2024-02-15T08:10:10;101428.88;;;8.44;57.82
84578;BME280;74803;44.756;19.218;2024-02-15T08:12:44;101427.44;;;8.51;57.16
84578;BME280;74803;44.756;19.218;2024-02-15T08:15:10;101433.91;;;8.57;56.90
84578;BME280;74803;44.756;19.218;2024-02-15T08:17:39;101430.41;;;8.79;57.75
84578;BME280;74803;44.756;19.218;2024-02-15T08:20:06;101428.63;;;8.79;56.37
84578;BME280;74803;44.756;19.218;2024-02-15T08:22:32;101423.97;;;8.94;56.98
84578;BME280;74803;44.756;19.218;2024-02-15T08:24:59;101420.91;;;9.21;55.29
84578;BME280;74803;44.756;19.218;2024-02-15T08:27:25;101421.53;;;9.34;55.25
84578;BME280;74803;44.756;19.218;2024-02-15T08:29:51;101425.00;;;9.44;54.58
84578;BME280;74803;44.756;19.218;2024-02-15T08:32:16;101416.50;;;9.63;54.88
84578;BME280;74803;44.756;19.218;2024-02-15T08:34:42;101414.16;;;9.90;53.57
84578;BME280;74803;44.756;19.218;2024-02-15T08:37:07;101409.38;;;10.16;53.43
84578;BME280;74803;44.756;19.218;2024-02-15T08:39:34;101413.41;;;10.58;52.26
84578;BME280;74803;44.756;19.218;2024-02-15T08:42:00;101414.50;;;10.75;51.74
84578;BME280;74803;44.756;19.218;2024-02-15T08:44:25;101425.97;;;11.01;51.21
84578;BME280;74803;44.756;19.218;2024-02-15T08:46:51;101421.16;;;11.25;50.39
84578;BME280;74803;44.756;19.218;2024-02-15T08:49:16;101420.31;;;11.44;50.04
84578;BME280;74803;44.756;19.218;2024-02-15T08:51:42;101411.31;;;11.66;49.17
84578;BME280;74803;44.756;19.218;2024-02-15T08:54:08;101421.28;;;11.34;50.97
84578;BME280;74803;44.756;19.218;2024-02-15T08:56:37;101416.50;;;11.39;50.81
84578;BME280;74803;44.756;19.218;2024-02-15T08:59:02;101422.41;;;11.21;51.01
84578;BME280;74803;44.756;19.218;2024-02-15T09:01:28;101423.63;;;11.83;50.34
84578;BME280;74803;44.756;19.218;2024-02-15T09:03:53;101426.75;;;12.14;48.88
84578;BME280;74803;44.756;19.218;2024-02-15T09:06:19;101418.09;;;12.23;48.64
84578;BME280;74803;44.756;19.218;2024-02-15T09:08:45;101422.59;;;12.66;47.67
84578;BME280;74803;44.756;19.218;2024-02-15T09:11:11;101422.69;;;12.29;47.81
84578;BME280;74803;44.756;19.218;2024-02-15T09:13:37;101429.66;;;12.74;46.85
84578;BME280;74803;44.756;19.218;2024-02-15T09:16:04;101420.19;;;13.26;44.92
84578;BME280;74803;44.756;19.218;2024-02-15T09:18:29;101419.38;;;13.51;44.47
84578;BME280;74803;44.756;19.218;2024-02-15T09:20:55;101421.59;;;13.20;45.89
84578;BME280;74803;44.756;19.218;2024-02-15T09:23:21;101425.41;;;13.52;45.01
84578;BME280;74803;44.756;19.218;2024-02-15T09:25:48;101428.75;;;13.01;46.49
84578;BME280;74803;44.756;19.218;2024-02-15T09:28:15;101427.09;;;13.35;45.96
84578;BME280;74803;44.756;19.218;2024-02-15T09:30:40;101425.78;;;12.95;47.55
84578;BME280;74803;44.756;19.218;2024-02-15T09:33:06;101425.88;;;12.86;48.40
84578;BME280;74803;44.756;19.218;2024-02-15T09:35:31;101420.56;;;13.13;46.91
84578;BME280;74803;44.756;19.218;2024-02-15T09:37:57;101416.66;;;13.35;46.57
84578;BME280;74803;44.756;19.218;2024-02-15T09:40:22;101417.84;;;13.74;45.63
84578;BME280;74803;44.756;19.218;2024-02-15T09:42:51;101415.22;;;13.66;46.00
84578;BME280;74803;44.756;19.218;2024-02-15T09:45:17;101410.22;;;13.81;44.28
84578;BME280;74803;44.756;19.218;2024-02-15T09:47:44;101408.94;;;13.59;45.91
84578;BME280;74803;44.756;19.218;2024-02-15T09:50:10;101409.22;;;13.82;46.47
84578;BME280;74803;44.756;19.218;2024-02-15T09:52:38;101407.69;;;14.05;45.63
84578;BME280;74803;44.756;19.218;2024-02-15T09:55:04;101404.38;;;14.37;43.12
84578;BME280;74803;44.756;19.218;2024-02-15T09:57:30;101399.97;;;14.38;43.95
84578;BME280;74803;44.756;19.218;2024-02-15T09:59:58;101415.06;;;14.84;42.51
84578;BME280;74803;44.756;19.218;2024-02-15T10:02:25;101413.63;;;15.69;40.42
84578;BME280;74803;44.756;19.218;2024-02-15T10:04:51;101412.44;;;15.08;41.77
84578;BME280;74803;44.756;19.218;2024-02-15T10:07:18;101410.31;;;14.88;42.41
84578;BME280;74803;44.756;19.218;2024-02-15T10:09:43;101407.34;;;15.86;39.49
84578;BME280;74803;44.756;19.218;2024-02-15T10:12:11;101407.81;;;15.98;39.63
84578;BME280;74803;44.756;19.218;2024-02-15T10:14:44;101402.38;;;15.44;40.74
84578;BME280;74803;44.756;19.218;2024-02-15T10:17:12;101407.16;;;16.50;38.12
84578;BME280;74803;44.756;19.218;2024-02-15T10:19:41;101400.94;;;16.51;38.06
84578;BME280;74803;44.756;19.218;2024-02-15T10:22:10;101391.72;;;16.32;39.07
84578;BME280;74803;44.756;19.218;2024-02-15T10:24:36;101388.59;;;16.59;38.43
84578;BME280;74803;44.756;19.218;2024-02-15T10:27:02;101393.16;;;17.03;37.28
84578;BME280;74803;44.756;19.218;2024-02-15T10:29:36;101398.34;;;16.73;38.81
84578;BME280;74803;44.756;19.218;2024-02-15T10:32:02;101395.09;;;16.40;38.63
84578;BME280;74803;44.756;19.218;2024-02-15T10:34:29;101385.28;;;18.20;34.84
84578;BME280;74803;44.756;19.218;2024-02-15T10:36:55;101390.00;;;17.07;37.13
84578;BME280;74803;44.756;19.218;2024-02-15T10:39:36;101387.78;;;17.48;35.59
84578;BME280;74803;44.756;19.218;2024-02-15T10:42:02;101387.78;;;17.92;35.07
84578;BME280;74803;44.756;19.218;2024-02-15T10:44:28;101387.66;;;17.12;36.70
84578;BME280;74803;44.756;19.218;2024-02-15T10:46:53;101380.16;;;17.09;37.02
84578;BME280;74803;44.756;19.218;2024-02-15T10:49:23;101379.94;;;17.63;35.74
84578;BME280;74803;44.756;19.218;2024-02-15T10:52:06;101375.88;;;18.32;35.66
84578;BME280;74803;44.756;19.218;2024-02-15T10:54:49;101380.00;;;18.20;34.49
84578;BME280;74803;44.756;19.218;2024-02-15T10:57:22;101370.78;;;18.94;32.91
84578;BME280;74803;44.756;19.218;2024-02-15T10:59:59;101370.41;;;18.97;32.33
84578;BME280;74803;44.756;19.218;2024-02-15T11:02:59;101365.94;;;17.48;34.84
84578;BME280;74803;44.756;19.218;2024-02-15T11:05:44;101352.00;;;17.18;36.40
84578;BME280;74803;44.756;19.218;2024-02-15T11:08:12;101355.84;;;17.59;35.61
84578;BME280;74803;44.756;19.218;2024-02-15T11:10:38;101346.56;;;17.63;35.32
84578;BME280;74803;44.756;19.218;2024-02-15T11:13:05;101343.22;;;17.55;35.57
84578;BME280;74803;44.756;19.218;2024-02-15T11:15:41;101340.66;;;17.17;36.59
84578;BME280;74803;44.756;19.218;2024-02-15T11:18:07;101339.94;;;17.67;34.55
84578;BME280;74803;44.756;19.218;2024-02-15T11:22:59;101335.25;;;17.63;34.12
84578;BME280;74803;44.756;19.218;2024-02-15T11:25:34;101333.00;;;17.31;34.44
84578;BME280;74803;44.756;19.218;2024-02-15T11:30:44;101324.72;;;17.48;35.30
84578;BME280;74803;44.756;19.218;2024-02-15T11:36:07;101328.63;;;18.88;31.42
84578;BME280;74803;44.756;19.218;2024-02-15T11:38:38;101327.47;;;18.05;33.71
84578;BME280;74803;44.756;19.218;2024-02-15T11:41:10;101322.09;;;17.63;33.60
84578;BME280;74803;44.756;19.218;2024-02-15T11:46:27;101323.13;;;18.40;32.74
84578;BME280;74803;44.756;19.218;2024-02-15T11:48:57;101319.38;;;18.07;32.50
84578;BME280;74803;44.756;19.218;2024-02-15T11:51:26;101311.06;;;17.23;34.38
84578;BME280;74803;44.756;19.218;2024-02-15T11:54:01;101313.47;;;18.26;32.44
84578;BME280;74803;44.756;19.218;2024-02-15T11:56:48;101306.72;;;18.17;31.98
84578;BME280;74803;44.756;19.218;2024-02-15T11:59:17;101302.84;;;18.55;31.68
84578;BME280;74803;44.756;19.218;2024-02-15T12:01:57;101297.84;;;18.88;30.39
84578;BME280;74803;44.756;19.218;2024-02-15T12:04:42;101294.09;;;19.45;31.02
84578;BME280;74803;44.756;19.218;2024-02-15T12:07:27;101300.00;;;19.47;30.32
84578;BME280;74803;44.756;19.218;2024-02-15T12:10:20;101293.50;;;20.96;27.64
84578;BME280;74803;44.756;19.218;2024-02-15T12:13:04;101297.19;;;20.49;28.00
84578;BME280;74803;44.756;19.218;2024-02-15T12:16:02;101290.03;;;20.89;27.13
84578;BME280;74803;44.756;19.218;2024-02-15T12:18:49;101284.81;;;20.36;28.06
84578;BME280;74803;44.756;19.218;2024-02-15T12:21:19;101288.03;;;20.38;27.70
84578;BME280;74803;44.756;19.218;2024-02-15T12:23:52;101277.97;;;19.68;29.12
84578;BME280;74803;44.756;19.218;2024-02-15T12:26:22;101277.06;;;19.07;29.78
84578;BME280;74803;44.756;19.218;2024-02-15T12:28:56;101280.06;;;17.99;31.40
84578;BME280;74803;44.756;19.218;2024-02-15T12:31:23;101274.50;;;17.58;33.04
84578;BME280;74803;44.756;19.218;2024-02-15T12:34:01;101271.56;;;17.61;32.44
84578;BME280;74803;44.756;19.218;2024-02-15T12:36:29;101272.59;;;18.24;32.04
84578;BME280;74803;44.756;19.218;2024-02-15T12:39:03;101266.56;;;19.48;29.36
84578;BME280;74803;44.756;19.218;2024-02-15T12:41:37;101263.28;;;19.46;29.65
84578;BME280;74803;44.756;19.218;2024-02-15T12:44:03;101260.00;;;20.63;27.26
84578;BME280;74803;44.756;19.218;2024-02-15T12:46:30;101263.16;;;19.73;28.55
84578;BME280;74803;44.756;19.218;2024-02-15T12:49:07;101261.28;;;19.54;28.73
84578;BME280;74803;44.756;19.218;2024-02-15T12:51:33;101263.91;;;19.48;28.79
84578;BME280;74803;44.756;19.218;2024-02-15T12:54:08;101266.44;;;19.34;29.37
84578;BME280;74803;44.756;19.218;2024-02-15T12:56:33;101260.41;;;18.99;30.39
84578;BME280;74803;44.756;19.218;2024-02-15T12:58:59;101258.28;;;18.82;30.18
84578;BME280;74803;44.756;19.218;2024-02-15T13:01:27;101256.91;;;18.37;31.16